Alley Springs, Missouri
Current Conditions -  °F | °C
As of 2:53 PM on Tuesday 25 Nov 2014 (Local Time) from KUNO Reporting Station
Clear Clear  
Wind Chill: 41°   Ceiling: Unl
Heat Index: 45°   Visibility: 10mi
Dew Point: 17°   Wind: 7mph
Humidity: 33%   Direction: NA
Pressure: 30.13"   Gusts: NA
Location:  37.1833°N, 91.4819°W
Report Text: KUNO 252053Z AUTO VRB06KT 10SM CLR 07/M08 A3013 RMK AO2 SLP210 T00721083 56024
Loading
Personal Weather Stations






























Interactive Weather Map New forecast layout! Learn more

10-Day Weather Forecast

Advertisements
Track Severe Weather on mobile